Time;durP1;ratioP1;P1;durP2;ratioP2;P2;SDS_P1;SDS_P2;PMS_P1;PMS_P2;Temp;Humidity;BMP_temperature;BMP_pressure;BME280_temperature;BME280_humidity;BME280_pressure;Samples;Min_cycle;Max_cycle;Signal;HPM_P1;HPM_P2
2023/12/04 00:02:25;;;;;;;8.10;7.40;;;;;;;5.99;93.95;99882.94;5075027;28;20200;-72
2023/12/04 00:04:51;;;;;;;8.23;7.63;;;;;;;6.03;93.33;99893.97;5075048;28;20200;-72
2023/12/04 00:07:18;;;;;;;7.63;6.93;;;;;;;6.05;92.30;99894.66;5074857;28;20249;-72
2023/12/04 00:09:45;;;;;;;7.97;7.37;;;;;;;6.00;92.40;99902.22;5074646;28;20199;-72
2023/12/04 00:12:12;;;;;;;7.43;6.93;;;;;;;6.05;92.53;99913.13;5074790;28;20195;-72
2023/12/04 00:14:38;;;;;;;8.43;7.17;;;;;;;6.00;92.63;99912.78;5074698;28;20190;-72
2023/12/04 00:17:06;;;;;;;7.60;7.10;;;;;;;5.96;91.29;99917.50;5074518;28;20196;-72
2023/12/04 00:19:33;;;;;;;8.30;7.60;;;;;;;5.94;91.31;99918.66;5074786;28;20196;-72
2023/12/04 00:22:00;;;;;;;8.10;7.40;;;;;;;5.75;91.37;99894.16;5074104;28;20340;-72
2023/12/04 00:24:26;;;;;;;8.00;7.40;;;;;;;5.89;91.89;99939.38;5072622;28;20255;-73
2023/12/04 00:26:53;;;;;;;8.10;7.50;;;;;;;5.73;92.44;99932.19;5073427;28;20264;-74
2023/12/04 00:29:20;;;;;;;7.93;7.30;;;;;;;5.81;91.91;99936.69;5073697;28;20687;-74
2023/12/04 00:31:46;;;;;;;8.63;8.03;;;;;;;5.77;92.53;99944.06;5074492;28;20261;-74
2023/12/04 00:34:15;;;;;;;7.90;7.13;;;;;;;5.78;92.53;99962.38;5073434;28;20567;-73
2023/12/04 00:36:41;;;;;;;8.20;7.50;;;;;;;5.71;91.57;99971.88;5062508;28;20630;-71
2023/12/04 00:39:08;;;;;;;9.33;7.73;;;;;;;5.69;90.96;99973.81;5054077;28;20225;-71
2023/12/04 00:41:35;;;;;;;7.30;6.70;;;;;;;5.61;91.56;99970.31;5054508;28;20192;-73
2023/12/04 00:44:01;;;;;;;8.50;7.47;;;;;;;5.59;91.58;99957.28;5054005;28;20200;-72
2023/12/04 00:46:28;;;;;;;8.07;7.33;;;;;;;5.53;91.84;99950.00;5053913;28;20618;-71
2023/12/04 00:48:55;;;;;;;7.93;7.23;;;;;;;5.61;89.22;99942.13;5054082;28;20222;-72
2023/12/04 00:51:23;;;;;;;7.00;6.40;;;;;;;5.68;88.21;99951.06;5053723;28;20250;-72
2023/12/04 00:53:49;;;;;;;6.90;6.30;;;;;;;5.72;88.12;99962.97;5053655;28;20246;-71
2023/12/04 00:56:16;;;;;;;7.67;7.13;;;;;;;5.66;89.03;99942.50;5053907;28;20256;-72
2023/12/04 00:58:43;;;;;;;8.00;6.63;;;;;;;5.71;89.35;99961.31;5053633;28;20224;-73
2023/12/04 01:01:10;;;;;;;7.37;6.53;;;;;;;5.79;89.71;99968.44;5053532;28;20630;-74
2023/12/04 01:03:36;;;;;;;8.00;7.40;;;;;;;5.58;90.03;99954.78;5053657;28;20279;-72
2023/12/04 01:06:03;;;;;;;6.93;6.30;;;;;;;5.71;90.19;99966.59;5053831;28;20196;-72
2023/12/04 01:08:31;;;;;;;7.23;6.70;;;;;;;5.74;87.59;99987.38;5052987;28;20256;-70
2023/12/04 01:10:58;;;;;;;6.57;5.97;;;;;;;5.71;86.07;99982.41;5054126;28;20200;-71
2023/12/04 01:13:25;;;;;;;6.37;5.97;;;;;;;5.61;86.63;99991.38;5052248;28;20348;-72
2023/12/04 01:15:51;;;;;;;6.43;6.03;;;;;;;5.56;86.63;99983.09;5053542;28;20636;-71
2023/12/04 01:18:18;;;;;;;6.87;6.30;;;;;;;5.49;87.22;99979.41;5053807;28;20222;-71
2023/12/04 01:20:45;;;;;;;7.10;6.60;;;;;;;5.46;87.73;99967.38;5053429;28;20200;-71
2023/12/04 01:23:11;;;;;;;7.40;6.80;;;;;;;5.57;88.00;99988.19;5052416;28;20204;-70
2023/12/04 01:25:40;;;;;;;8.07;7.27;;;;;;;5.56;88.52;99983.91;5052512;28;20197;-71
2023/12/04 01:28:07;;;;;;;6.93;6.20;;;;;;;5.52;88.20;99987.84;5052459;28;20676;-72
2023/12/04 01:30:33;;;;;;;7.20;6.60;;;;;;;5.48;88.27;99991.75;5053285;28;20220;-71
2023/12/04 01:33:00;;;;;;;6.50;6.00;;;;;;;5.45;88.36;99994.72;5053345;28;20247;-71
2023/12/04 01:35:27;;;;;;;6.47;5.97;;;;;;;5.37;87.06;100004.34;5056714;28;20192;-71
2023/12/04 01:37:53;;;;;;;7.00;6.30;;;;;;;5.29;86.44;100002.47;5072815;28;20230;-71
2023/12/04 01:40:20;;;;;;;6.33;5.90;;;;;;;5.25;87.14;100006.38;5073239;28;20622;-71
2023/12/04 01:42:48;;;;;;;5.83;5.43;;;;;;;5.33;86.57;100003.81;5072712;28;20675;-70
2023/12/04 01:45:16;;;;;;;7.13;6.63;;;;;;;5.32;86.83;100007.41;5072654;28;20660;-71
2023/12/04 01:47:43;;;;;;;5.67;5.27;;;;;;;5.22;86.61;100006.66;5072781;28;20203;-71
2023/12/04 01:50:10;;;;;;;6.20;5.70;;;;;;;5.19;86.32;100006.94;5072501;28;20196;-70
2023/12/04 01:52:38;;;;;;;5.20;4.90;;;;;;;5.27;86.47;100004.41;5071788;28;20614;-70
2023/12/04 01:55:07;;;;;;;6.07;5.67;;;;;;;5.27;85.79;100007.03;5071158;28;20699;-71
2023/12/04 01:57:33;;;;;;;6.27;5.67;;;;;;;5.20;85.32;100000.69;5071816;28;20191;-70
2023/12/04 02:00:02;;;;;;;13.87;5.47;;;;;;;5.10;84.61;100001.75;5071091;28;20788;-71
2023/12/04 02:02:30;;;;;;;5.50;5.00;;;;;;;5.05;84.66;100007.47;5072687;28;20286;-71
2023/12/04 02:04:58;;;;;;;5.20;4.80;;;;;;;5.07;84.90;100012.59;5072722;28;20192;-70
2023/12/04 02:07:25;;;;;;;5.67;5.27;;;;;;;4.98;84.34;100009.03;5072078;28;20187;-70
2023/12/04 02:09:52;;;;;;;6.13;5.63;;;;;;;5.03;83.63;100014.69;5072387;28;20196;-70
2023/12/04 02:12:19;;;;;;;6.07;5.67;;;;;;;4.98;84.17;100014.31;5072492;28;20640;-70
2023/12/04 02:14:46;;;;;;;5.37;4.93;;;;;;;5.04;82.46;100016.38;5072069;28;20624;-70
2023/12/04 02:17:16;;;;;;;5.73;5.30;;;;;;;5.11;82.80;100014.78;5072186;28;20192;-71
2023/12/04 02:19:43;;;;;;;5.97;5.57;;;;;;;5.17;83.41;100011.56;5071959;28;20232;-71
2023/12/04 02:22:10;;;;;;;5.93;5.30;;;;;;;5.18;83.21;100026.38;5072132;28;20188;-71
2023/12/04 02:24:38;;;;;;;5.03;4.73;;;;;;;5.13;82.87;100028.63;5071876;28;20195;-71
2023/12/04 02:27:11;;;;;;;5.37;5.07;;;;;;;5.03;81.97;100046.28;5070696;28;20196;-71
2023/12/04 02:29:41;;;;;;;4.93;4.63;;;;;;;4.99;81.63;100042.28;5071755;28;20314;-72
2023/12/04 02:32:11;;;;;;;5.07;4.73;;;;;;;4.91;80.77;100044.81;5071911;28;20249;-72
2023/12/04 02:34:39;;;;;;;5.20;4.63;;;;;;;4.92;81.04;100058.81;5072082;28;20575;-73
2023/12/04 02:37:07;;;;;;;4.50;4.30;;;;;;;4.89;80.69;100059.94;5057038;28;20699;-72
2023/12/04 02:39:34;;;;;;;5.23;4.80;;;;;;;4.99;80.59;100068.59;5051606;28;20654;-72
2023/12/04 02:42:02;;;;;;;4.70;4.30;;;;;;;4.98;80.98;100061.69;5060656;28;20247;-72
2023/12/04 02:44:29;;;;;;;4.53;4.27;;;;;;;4.97;80.35;100072.34;5071794;28;20196;-72
2023/12/04 02:46:56;;;;;;;5.67;4.67;;;;;;;4.93;80.25;100068.34;5071981;28;20256;-73
2023/12/04 02:49:23;;;;;;;5.10;4.80;;;;;;;4.96;79.94;100057.53;5071267;28;20207;-73
2023/12/04 02:51:50;;;;;;;5.10;4.77;;;;;;;4.95;79.96;100063.78;5071720;28;20195;-72
2023/12/04 02:54:16;;;;;;;5.47;5.07;;;;;;;5.07;79.54;100063.44;5070677;28;20200;-73
2023/12/04 02:56:43;;;;;;;4.40;4.13;;;;;;;5.01;79.13;100071.94;5070331;28;20656;-72
2023/12/04 02:59:11;;;;;;;5.33;4.93;;;;;;;4.96;78.57;100068.06;5071113;28;20284;-71
2023/12/04 03:01:38;;;;;;;5.27;4.87;;;;;;;4.79;77.40;100072.28;5071513;28;20793;-73
2023/12/04 03:04:05;;;;;;;5.67;5.17;;;;;;;4.83;77.98;100072.84;5071642;28;20196;-72
2023/12/04 03:06:32;;;;;;;5.03;4.60;;;;;;;4.74;78.00;100079.81;5071248;28;20191;-73
2023/12/04 03:08:59;;;;;;;4.63;4.43;;;;;;;4.64;77.65;100068.50;5071682;28;20245;-73
2023/12/04 03:11:26;;;;;;;5.93;4.77;;;;;;;4.78;77.44;100102.22;5071364;28;20694;-72
2023/12/04 03:13:53;;;;;;;5.17;4.77;;;;;;;4.74;77.70;100094.78;5071749;28;20204;-71
2023/12/04 03:16:21;;;;;;;5.13;4.73;;;;;;;4.70;77.29;100110.00;5070741;28;20206;-71
2023/12/04 03:18:47;;;;;;;5.30;4.93;;;;;;;4.63;77.78;100103.69;5071415;28;20219;-70
2023/12/04 03:21:14;;;;;;;5.53;5.17;;;;;;;4.66;77.61;100111.25;5070885;28;20642;-70
2023/12/04 03:23:41;;;;;;;5.00;4.70;;;;;;;4.63;77.22;100131.78;5070240;28;20793;-70
2023/12/04 03:26:08;;;;;;;5.00;4.70;;;;;;;4.63;77.80;100134.41;5070393;28;20196;-71
2023/12/04 03:28:35;;;;;;;5.17;4.87;;;;;;;4.56;76.95;100126.25;5070186;28;20248;-70
2023/12/04 03:31:01;;;;;;;5.60;5.10;;;;;;;4.18;77.49;100089.53;5069969;28;20227;-71
2023/12/04 03:33:29;;;;;;;5.00;4.70;;;;;;;4.52;76.49;100127.53;5070946;28;20213;-72
2023/12/04 03:35:56;;;;;;;5.17;4.67;;;;;;;4.47;77.17;100137.66;5071499;28;20192;-72
2023/12/04 03:38:23;;;;;;;4.83;4.43;;;;;;;4.50;76.42;100132.06;5071325;28;20571;-72
2023/12/04 03:40:49;;;;;;;5.50;5.03;;;;;;;4.52;75.75;100145.09;5071397;28;20256;-72
2023/12/04 03:43:16;;;;;;;5.13;4.80;;;;;;;4.44;76.78;100131.81;5071425;28;20199;-71
2023/12/04 03:45:43;;;;;;;5.30;4.80;;;;;;;4.54;75.72;100135.28;5071512;28;20200;-72
2023/12/04 03:48:10;;;;;;;4.43;4.13;;;;;;;4.61;76.37;100129.28;5071407;28;20253;-72
2023/12/04 03:50:38;;;;;;;5.03;4.63;;;;;;;4.44;75.53;100132.66;5069090;28;20608;-72
2023/12/04 03:53:04;;;;;;;5.17;4.73;;;;;;;4.58;75.25;100147.16;5071482;28;20196;-71
2023/12/04 03:55:31;;;;;;;5.00;4.70;;;;;;;4.50;74.11;100149.69;5069779;28;20187;-72
2023/12/04 03:57:59;;;;;;;5.63;5.27;;;;;;;4.50;75.16;100161.00;5071293;28;20241;-70
2023/12/04 04:00:25;;;;;;;4.80;4.50;;;;;;;4.51;74.11;100151.34;5071003;28;20228;-71
2023/12/04 04:02:52;;;;;;;4.90;4.50;;;;;;;4.47;74.18;100161.31;5071178;28;20511;-72
2023/12/04 04:05:19;;;;;;;4.77;4.37;;;;;;;4.49;74.57;100145.38;5069485;28;20203;-69
2023/12/04 04:07:47;;;;;;;5.23;4.93;;;;;;;4.55;74.29;100135.13;5070257;28;20211;-71
2023/12/04 04:10:14;;;;;;;6.43;5.70;;;;;;;4.58;73.95;100140.09;5070286;28;20585;-69
2023/12/04 04:12:41;;;;;;;5.70;5.40;;;;;;;4.53;74.33;100142.31;5071106;28;20196;-69
2023/12/04 04:15:08;;;;;;;5.40;5.00;;;;;;;4.54;74.67;100149.22;5071245;28;20280;-69
2023/12/04 04:17:35;;;;;;;5.67;5.27;;;;;;;4.41;75.15;100155.78;5071349;28;20196;-69
2023/12/04 04:20:02;;;;;;;5.43;4.97;;;;;;;4.40;74.74;100165.47;5074439;28;20223;-70
2023/12/04 04:22:29;;;;;;;5.33;5.03;;;;;;;4.44;74.85;100171.25;5074046;28;20188;-70
2023/12/04 04:24:57;;;;;;;5.07;4.77;;;;;;;4.41;74.41;100169.75;5073602;28;20195;-69
2023/12/04 04:27:24;;;;;;;5.07;4.77;;;;;;;4.38;74.90;100177.09;5074170;28;20283;-70
2023/12/04 04:29:51;;;;;;;5.30;4.90;;;;;;;4.32;74.76;100183.75;5073945;28;21075;-70
2023/12/04 04:32:17;;;;;;;5.70;5.30;;;;;;;4.31;74.66;100191.78;5074180;28;20257;-71
2023/12/04 04:34:44;;;;;;;5.77;5.23;;;;;;;4.36;73.90;100186.91;5074268;28;20790;-71
2023/12/04 04:37:12;;;;;;;6.37;6.00;;;;;;;4.30;73.67;100196.19;5073812;28;20187;-71
2023/12/04 04:39:40;;;;;;;5.40;5.00;;;;;;;4.25;74.08;100203.66;5073881;28;20511;-70
2023/12/04 04:42:08;;;;;;;5.67;5.17;;;;;;;4.32;72.90;100207.41;5074026;28;20660;-71
2023/12/04 04:44:35;;;;;;;5.60;5.07;;;;;;;4.22;73.34;100209.22;5073901;28;20841;-70
2023/12/04 04:47:02;;;;;;;6.90;6.20;;;;;;;4.21;73.00;100210.16;5074320;28;20269;-70
2023/12/04 04:49:29;;;;;;;6.60;6.10;;;;;;;4.10;73.09;100214.75;5073791;28;20199;-70
2023/12/04 04:51:55;;;;;;;6.37;5.87;;;;;;;4.00;72.55;100214.72;5073359;28;20499;-70
2023/12/04 04:54:22;;;;;;;5.93;5.53;;;;;;;4.04;73.43;100213.50;5072717;28;20208;-71
2023/12/04 04:56:49;;;;;;;6.13;5.73;;;;;;;3.97;73.05;100212.38;5072404;28;20195;-70
2023/12/04 04:59:17;;;;;;;5.70;5.40;;;;;;;3.95;72.98;100216.09;5073545;28;20219;-70
2023/12/04 05:01:44;;;;;;;5.83;5.33;;;;;;;4.04;73.25;100215.31;5073423;28;20490;-72
2023/12/04 05:04:10;;;;;;;6.67;5.90;;;;;;;4.07;73.70;100221.09;5073941;28;20262;-72
2023/12/04 05:06:37;;;;;;;5.63;5.23;;;;;;;4.07;73.39;100220.25;5073409;28;20254;-72
2023/12/04 05:09:04;;;;;;;5.40;5.10;;;;;;;4.08;72.88;100238.53;5073333;28;20199;-71
2023/12/04 05:11:31;;;;;;;6.23;5.83;;;;;;;3.96;72.48;100205.47;5071920;28;20257;-72
2023/12/04 05:13:58;;;;;;;6.83;6.23;;;;;;;4.06;72.41;100250.16;5071930;28;20187;-71
2023/12/04 05:16:26;;;;;;;6.40;5.77;;;;;;;4.02;72.79;100243.50;5073116;28;20441;-70
2023/12/04 05:18:52;;;;;;;7.13;6.50;;;;;;;4.06;72.92;100247.53;5073081;28;20272;-70
2023/12/04 05:21:19;;;;;;;10.53;6.27;;;;;;;3.93;73.31;100254.84;5073232;28;20266;-71
2023/12/04 05:23:46;;;;;;;7.20;6.63;;;;;;;3.98;73.48;100258.72;5073125;28;20630;-71
2023/12/04 05:26:12;;;;;;;7.77;7.03;;;;;;;4.04;72.81;100266.06;5073230;28;20265;-71
2023/12/04 05:28:40;;;;;;;6.47;6.07;;;;;;;3.95;72.98;100266.88;5072432;28;20689;-71
2023/12/04 05:31:07;;;;;;;7.40;6.90;;;;;;;3.90;72.85;100274.34;5070433;28;20235;-70
2023/12/04 05:33:35;;;;;;;7.17;6.20;;;;;;;3.92;72.46;100268.97;5072340;28;20509;-70
2023/12/04 05:36:02;;;;;;;8.70;6.57;;;;;;;3.90;72.31;100269.09;5072701;28;20437;-70
2023/12/04 05:38:28;;;;;;;6.83;6.23;;;;;;;4.06;72.63;100277.28;5061444;28;20454;-71
2023/12/04 05:40:55;;;;;;;5.70;5.30;;;;;;;4.09;71.78;100279.63;5071641;28;20691;-70
2023/12/04 05:43:22;;;;;;;6.07;5.57;;;;;;;4.06;71.87;100265.94;5071147;28;20203;-71
2023/12/04 05:45:48;;;;;;;5.60;5.30;;;;;;;4.24;72.24;100275.63;5072551;28;20552;-71
2023/12/04 05:48:15;;;;;;;6.20;5.80;;;;;;;4.16;69.75;100293.03;5073387;28;20229;-72
2023/12/04 05:50:43;;;;;;;6.33;5.83;;;;;;;4.17;70.34;100292.09;5071191;28;20728;-70
2023/12/04 05:53:10;;;;;;;7.43;6.83;;;;;;;4.15;70.28;100305.38;5072244;28;20717;-72
2023/12/04 05:55:37;;;;;;;7.57;6.63;;;;;;;4.11;70.27;100306.63;5072836;28;20192;-71
2023/12/04 05:58:03;;;;;;;6.27;5.73;;;;;;;4.12;68.53;100321.41;5072583;28;20625;-71
2023/12/04 06:00:30;;;;;;;7.30;6.80;;;;;;;4.11;68.57;100325.00;5072261;28;20216;-72
2023/12/04 06:02:57;;;;;;;7.03;6.43;;;;;;;4.10;68.81;100330.41;5072486;28;20663;-73
2023/12/04 06:05:24;;;;;;;6.90;6.30;;;;;;;4.08;68.29;100335.78;5072405;28;20544;-72
2023/12/04 06:07:52;;;;;;;7.20;6.47;;;;;;;4.08;68.83;100327.06;5070771;28;20468;-73
2023/12/04 06:10:18;;;;;;;6.37;5.97;;;;;;;4.07;69.37;100328.88;5070313;28;20637;-71
2023/12/04 06:12:45;;;;;;;6.63;6.03;;;;;;;4.19;69.41;100329.59;5070461;28;20258;-74
2023/12/04 06:15:12;;;;;;;6.73;6.20;;;;;;;4.20;69.81;100331.25;5070703;28;20696;-73
2023/12/04 06:17:39;;;;;;;7.60;6.80;;;;;;;4.18;71.06;100327.94;5071874;28;20242;-72
2023/12/04 06:20:07;;;;;;;9.10;7.13;;;;;;;4.17;70.89;100324.47;5072512;28;20273;-72
2023/12/04 06:22:34;;;;;;;6.87;6.30;;;;;;;4.24;73.98;100320.34;5071769;28;20223;-76
2023/12/04 06:25:03;;;;;;;9.33;8.40;;;;;;;4.27;71.69;100333.22;5070913;28;20199;-75
2023/12/04 06:27:30;;;;;;;11.30;9.63;;;;;;;4.29;71.28;100336.53;5070620;28;20191;-76
2023/12/04 06:29:58;;;;;;;8.80;7.87;;;;;;;4.36;71.26;100342.91;5066684;28;20301;-75
2023/12/04 06:32:25;;;;;;;7.73;7.13;;;;;;;4.35;69.94;100351.78;5069671;28;20215;-75
2023/12/04 06:34:53;;;;;;;6.50;5.10;;;;;;;4.27;68.76;100356.88;5070885;28;20192;-74
2023/12/04 06:37:21;;;;;;;6.13;5.73;;;;;;;4.27;68.74;100354.25;5070492;28;20362;-76
2023/12/04 06:39:49;;;;;;;6.80;6.30;;;;;;;4.25;69.21;100356.16;5069513;28;20273;-74
2023/12/04 06:42:18;;;;;;;6.83;6.30;;;;;;;4.24;68.57;100362.41;5068631;28;20215;-76
2023/12/04 06:44:45;;;;;;;9.23;8.33;;;;;;;4.20;68.70;100362.78;5063007;28;20853;-75
2023/12/04 06:47:16;;;;;;;7.23;6.63;;;;;;;4.21;68.65;100360.03;5064056;28;20445;-77
2023/12/04 06:49:43;;;;;;;5.70;5.40;;;;;;;4.32;68.07;100366.97;5063278;28;20260;-75
2023/12/04 06:52:10;;;;;;;6.20;5.73;;;;;;;4.27;68.47;100359.50;5063051;28;20223;-77
2023/12/04 06:54:37;;;;;;;8.17;6.20;;;;;;;4.36;68.32;100369.22;5064777;28;20441;-71
2023/12/04 06:57:04;;;;;;;7.20;6.30;;;;;;;4.44;68.16;100368.53;5071033;28;20188;-77
2023/12/04 06:59:32;;;;;;;6.30;5.83;;;;;;;4.39;67.70;100374.22;5070659;28;20195;-77
2023/12/04 07:01:59;;;;;;;9.30;6.47;;;;;;;4.43;67.97;100378.22;5071379;28;20677;-75
2023/12/04 07:04:26;;;;;;;6.20;5.70;;;;;;;4.47;67.87;100387.53;5071651;28;20196;-76
2023/12/04 07:06:53;;;;;;;20.90;11.90;;;;;;;4.50;68.70;100381.97;5071301;28;20191;-75
2023/12/04 07:09:20;;;;;;;8.97;7.17;;;;;;;4.45;67.59;100394.69;5071249;28;20621;-75
2023/12/04 07:11:46;;;;;;;7.43;6.73;;;;;;;4.50;67.96;100384.59;5071599;28;20226;-77
2023/12/04 07:14:13;;;;;;;7.10;6.10;;;;;;;4.56;67.55;100381.44;5071524;28;20503;-75
2023/12/04 07:16:42;;;;;;;6.80;5.27;;;;;;;4.52;67.62;100387.94;5071025;28;20195;-75
2023/12/04 07:19:10;;;;;;;7.13;6.63;;;;;;;4.49;67.56;100380.31;5071487;28;20223;-75
2023/12/04 07:21:37;;;;;;;10.97;9.97;;;;;;;4.62;68.17;100390.59;5070647;28;20294;-75
2023/12/04 07:24:04;;;;;;;7.07;6.40;;;;;;;4.63;67.64;100387.81;5071380;28;20564;-74
2023/12/04 07:26:32;;;;;;;8.63;5.87;;;;;;;4.64;67.95;100393.91;5071963;28;20591;-77
2023/12/04 07:28:58;;;;;;;7.57;5.77;;;;;;;4.76;67.79;100393.66;5071116;28;20645;-78
2023/12/04 07:31:25;;;;;;;6.53;6.10;;;;;;;4.87;68.04;100400.59;5071304;28;20293;-77
2023/12/04 07:33:54;;;;;;;5.77;5.20;;;;;;;4.94;67.08;100397.25;5071433;28;20197;-77
2023/12/04 07:36:20;;;;;;;8.40;7.60;;;;;;;5.12;67.35;100400.88;5070951;28;20255;-80
2023/12/04 07:38:47;;;;;;;6.83;6.33;;;;;;;5.26;67.65;100403.06;5070975;28;20199;-71
2023/12/04 07:41:15;;;;;;;6.70;5.50;;;;;;;4.99;66.53;100384.50;5070855;28;20273;-77
2023/12/04 07:43:41;;;;;;;5.17;4.87;;;;;;;5.22;64.84;100400.84;5070289;28;20261;-78
2023/12/04 07:46:10;;;;;;;5.40;4.90;;;;;;;5.29;64.89;100400.16;5070900;28;20664;-77
2023/12/04 07:48:37;;;;;;;6.80;5.20;;;;;;;5.35;63.63;100407.50;5070018;28;20211;-74
2023/12/04 07:51:06;;;;;;;10.93;9.50;;;;;;;5.49;64.15;100404.44;5070916;28;20207;-74
2023/12/04 07:53:33;;;;;;;7.87;7.03;;;;;;;5.63;63.82;100408.41;5072892;28;20242;-75
2023/12/04 07:56:02;;;;;;;9.03;7.73;;;;;;;5.67;63.86;100412.41;5074135;28;20638;-75
2023/12/04 07:58:29;;;;;;;5.50;5.00;;;;;;;5.64;63.40;100413.53;5067458;28;20196;-73
2023/12/04 08:00:56;;;;;;;5.60;5.20;;;;;;;5.70;63.74;100402.44;5073683;28;20368;-73
2023/12/04 08:03:23;;;;;;;6.27;5.77;;;;;;;5.48;63.72;100394.84;5072872;28;20191;-75
2023/12/04 08:05:50;;;;;;;5.90;5.50;;;;;;;5.20;64.44;100382.53;5068978;28;20196;-73
2023/12/04 08:08:18;;;;;;;78.50;40.93;;;;;;;5.19;64.60;100391.41;5070994;28;20659;-73
2023/12/04 08:10:45;;;;;;;5.47;4.97;;;;;;;5.15;64.16;100395.31;5070442;28;20195;-72
2023/12/04 08:13:12;;;;;;;6.33;5.80;;;;;;;5.04;64.08;100402.53;5071621;28;20545;-73
2023/12/04 08:15:39;;;;;;;5.20;4.90;;;;;;;5.02;64.48;100407.09;5070227;28;20192;-73
2023/12/04 08:18:05;;;;;;;9.47;6.90;;;;;;;5.17;65.27;100413.59;5072401;28;20253;-73
2023/12/04 08:20:33;;;;;;;37.87;7.63;;;;;;;5.46;65.57;100414.41;5068466;28;20289;-74
2023/12/04 08:23:00;;;;;;;24.00;7.30;;;;;;;5.69;64.29;100421.03;5079336;28;20192;-73
2023/12/04 08:25:28;;;;;;;12.50;6.53;;;;;;;5.71;62.49;100414.63;5068967;28;20821;-74
2023/12/04 08:27:55;;;;;;;5.40;5.00;;;;;;;5.84;63.44;100419.59;5078977;28;20195;-76
2023/12/04 08:30:22;;;;;;;5.37;5.07;;;;;;;6.14;62.92;100415.91;5071833;28;20223;-73
2023/12/04 08:32:48;;;;;;;6.03;5.63;;;;;;;6.28;61.96;100416.25;5073793;28;20592;-75
2023/12/04 08:35:15;;;;;;;7.10;6.40;;;;;;;6.38;61.33;100426.75;5073927;28;20200;-75
2023/12/04 08:37:42;;;;;;;5.90;5.40;;;;;;;6.31;60.98;100423.03;5073894;28;20258;-74
2023/12/04 08:40:10;;;;;;;6.60;6.10;;;;;;;6.19;61.02;100419.78;5073925;28;20645;-72
2023/12/04 08:42:38;;;;;;;9.47;7.83;;;;;;;6.35;61.38;100424.41;5073670;28;20622;-76
2023/12/04 08:45:06;;;;;;;7.17;6.50;;;;;;;6.34;60.87;100420.13;5073999;28;20222;-75
2023/12/04 08:47:33;;;;;;;8.33;6.63;;;;;;;6.31;61.51;100418.59;5074879;28;20191;-74
2023/12/04 08:50:01;;;;;;;6.40;5.90;;;;;;;6.22;61.97;100426.56;5074135;28;20196;-76
2023/12/04 08:52:28;;;;;;;6.57;5.73;;;;;;;6.26;62.50;100430.56;5073011;28;20192;-73
2023/12/04 08:54:55;;;;;;;6.47;6.07;;;;;;;6.38;63.84;100424.97;5069062;28;20257;-75
2023/12/04 08:57:21;;;;;;;6.10;5.70;;;;;;;6.39;63.11;100431.06;5071691;28;20686;-74
2023/12/04 08:59:49;;;;;;;6.33;5.93;;;;;;;6.75;62.47;100438.09;5070325;28;20617;-75
2023/12/04 09:02:16;;;;;;;7.40;6.70;;;;;;;6.87;61.19;100436.91;5070323;28;20269;-73
2023/12/04 09:04:43;;;;;;;9.07;8.07;;;;;;;6.93;60.98;100438.91;5071740;28;20587;-74
2023/12/04 09:07:09;;;;;;;22.10;13.07;;;;;;;6.86;61.45;100429.97;5071809;28;20198;-74
2023/12/04 09:09:36;;;;;;;8.80;7.90;;;;;;;6.95;61.85;100426.41;5069909;28;20663;-75
2023/12/04 09:12:04;;;;;;;11.17;10.07;;;;;;;7.23;61.81;100417.44;5072261;28;20198;-70
2023/12/04 09:14:30;;;;;;;7.83;7.07;;;;;;;7.34;60.56;100422.47;5070829;28;20211;-69
2023/12/04 09:16:58;;;;;;;7.67;6.87;;;;;;;7.20;61.52;100410.66;5070947;28;20194;-70
2023/12/04 09:19:25;;;;;;;6.97;6.47;;;;;;;7.18;61.09;100409.16;5070623;28;20249;-70
2023/12/04 09:21:52;;;;;;;8.53;7.60;;;;;;;7.42;61.36;100401.38;5071479;28;20277;-69
2023/12/04 09:24:18;;;;;;;10.53;7.93;;;;;;;7.52;61.71;100397.66;5071146;28;20290;-72
2023/12/04 09:26:45;;;;;;;8.17;7.07;;;;;;;7.76;60.72;100397.03;5071393;28;20261;-67
2023/12/04 09:29:12;;;;;;;8.33;7.63;;;;;;;7.78;60.31;100400.31;5070943;28;20614;-72
2023/12/04 09:31:39;;;;;;;9.47;7.80;;;;;;;7.64;59.93;100400.91;5070949;28;20276;-69
2023/12/04 09:34:08;;;;;;;9.50;8.50;;;;;;;7.61;60.20;100393.28;5070919;28;20253;-70
2023/12/04 09:36:35;;;;;;;8.10;7.30;;;;;;;7.62;61.50;100390.47;5071317;28;20210;-70
2023/12/04 09:39:03;;;;;;;15.63;11.37;;;;;;;7.62;60.07;100392.28;5070724;28;20286;-70
2023/12/04 09:41:31;;;;;;;8.43;7.57;;;;;;;7.62;60.61;100392.28;5071172;28;20347;-69
2023/12/04 09:43:58;;;;;;;9.10;7.73;;;;;;;7.69;60.48;100388.03;5070653;28;20273;-69
2023/12/04 09:46:26;;;;;;;10.27;7.13;;;;;;;7.81;60.75;100384.16;5071145;28;20198;-70
2023/12/04 09:48:54;;;;;;;7.17;6.57;;;;;;;7.91;61.53;100380.41;5070527;28;20575;-70
2023/12/04 09:51:23;;;;;;;7.40;6.70;;;;;;;7.81;60.45;100384.16;5070571;28;20290;-72
2023/12/04 09:53:50;;;;;;;8.07;7.27;;;;;;;7.66;61.05;100383.91;5070728;28;20194;-71
2023/12/04 09:56:17;;;;;;;8.43;7.83;;;;;;;7.66;60.94;100388.34;5070482;28;20188;-70
2023/12/04 09:58:46;;;;;;;7.70;7.00;;;;;;;7.58;61.93;100381.19;5070550;28;20291;-71
2023/12/04 10:01:13;;;;;;;6.97;6.27;;;;;;;7.67;61.41;100379.44;5070822;28;20227;-69
2023/12/04 10:03:42;;;;;;;7.87;7.17;;;;;;;7.62;61.65;100379.06;5070682;28;20234;-70
2023/12/04 10:06:09;;;;;;;6.93;6.23;;;;;;;7.86;61.74;100373.91;5085562;28;20253;-70
2023/12/04 10:08:37;;;;;;;9.60;7.17;;;;;;;7.96;61.27;100370.16;5075623;28;20748;-69
2023/12/04 10:11:04;;;;;;;8.50;7.77;;;;;;;8.10;62.37;100374.03;5069557;28;20264;-75
2023/12/04 10:13:31;;;;;;;7.30;6.70;;;;;;;8.03;61.41;100370.38;5070436;28;20586;-75
2023/12/04 10:15:58;;;;;;;8.63;7.73;;;;;;;8.23;61.11;100369.16;5070048;28;20196;-74
2023/12/04 10:18:27;;;;;;;8.37;7.57;;;;;;;8.33;62.06;100368.03;5077646;28;20245;-75
2023/12/04 10:20:55;;;;;;;10.33;8.33;;;;;;;8.32;60.30;100365.56;5070060;28;20231;-74
2023/12/04 10:23:22;;;;;;;9.77;8.97;;;;;;;8.22;59.96;100381.59;5070477;28;20234;-74
2023/12/04 10:25:51;;;;;;;10.57;8.70;;;;;;;8.20;60.56;100377.38;5081508;28;20191;-73
2023/12/04 10:28:19;;;;;;;20.40;9.33;;;;;;;8.32;60.92;100376.13;5074466;28;20309;-73
2023/12/04 10:30:46;;;;;;;8.90;8.00;;;;;;;8.30;62.06;100362.25;5071024;28;20235;-74
2023/12/04 10:33:14;;;;;;;11.70;8.27;;;;;;;8.31;61.96;100364.75;5069408;28;20192;-75
2023/12/04 10:35:41;;;;;;;8.17;7.40;;;;;;;8.23;60.72;100371.81;5071003;28;20207;-73
2023/12/04 10:38:08;;;;;;;7.73;7.13;;;;;;;8.23;60.79;100363.88;5069307;28;20199;-74
2023/12/04 10:40:37;;;;;;;7.57;7.07;;;;;;;8.08;62.04;100357.53;5069386;28;20184;-75
2023/12/04 10:43:23;;;;;;;8.43;7.73;;;;;;;8.00;62.14;100347.72;5069033;28;20268;-75
2023/12/04 10:45:51;;;;;;;9.37;8.40;;;;;;;8.16;62.76;100354.88;5073729;28;20272;-73
2023/12/04 10:48:19;;;;;;;8.23;7.50;;;;;;;8.33;62.28;100346.88;5080114;28;20195;-73
2023/12/04 10:50:48;;;;;;;8.20;7.47;;;;;;;8.21;61.43;100342.06;5068884;28;20196;-73
2023/12/04 10:53:16;;;;;;;7.43;6.73;;;;;;;8.11;62.08;100347.44;5069893;28;20203;-73
2023/12/04 10:55:44;;;;;;;7.93;7.33;;;;;;;8.12;61.03;100362.31;5069301;28;20192;-74
2023/12/04 10:58:12;;;;;;;8.60;7.70;;;;;;;8.21;61.02;100352.63;5069747;28;20279;-73
2023/12/04 11:00:45;;;;;;;11.43;7.97;;;;;;;8.28;60.89;100353.63;5068686;28;20667;-73
2023/12/04 11:03:14;;;;;;;10.80;8.00;;;;;;;8.20;60.93;100356.22;5069943;28;20206;-74
2023/12/04 11:05:42;;;;;;;10.10;7.97;;;;;;;8.32;61.09;100349.66;5069660;28;20552;-73
2023/12/04 11:08:12;;;;;;;11.93;7.67;;;;;;;8.53;60.88;100358.03;5068732;28;20253;-71
2023/12/04 11:10:46;;;;;;;8.27;7.43;;;;;;;8.56;59.73;100362.97;5069677;28;20264;-74
2023/12/04 11:13:18;;;;;;;7.23;6.63;;;;;;;8.65;59.30;100356.72;5070177;28;20177;-75
2023/12/04 11:15:50;;;;;;;8.00;6.87;;;;;;;8.55;59.49;100356.03;5070824;28;20203;-76
2023/12/04 11:18:21;;;;;;;9.67;7.90;;;;;;;8.65;60.72;100356.72;5070683;28;20184;-74
2023/12/04 11:20:52;;;;;;;7.43;6.83;;;;;;;8.66;59.98;100361.03;5070164;28;20628;-77
2023/12/04 11:23:19;;;;;;;8.77;6.13;;;;;;;8.72;59.42;100360.38;5069870;28;20187;-72
2023/12/04 11:25:47;;;;;;;12.37;6.93;;;;;;;8.93;59.81;100358.06;5069144;28;20209;-72
2023/12/04 11:28:15;;;;;;;15.97;8.90;;;;;;;9.03;59.55;100361.41;5071459;28;20191;-72
2023/12/04 11:30:42;;;;;;;9.83;8.00;;;;;;;9.00;59.88;100356.44;5073891;28;20223;-75
2023/12/04 11:33:11;;;;;;;13.00;8.53;;;;;;;9.16;59.70;100356.44;5074221;28;20192;-77
2023/12/04 11:35:39;;;;;;;6.43;4.83;;;;;;;9.29;65.30;100343.50;5074678;28;20245;-76